Time;durP1;ratioP1;P1;durP2;ratioP2;P2;SDS_P1;SDS_P2;PMS_P1;PMS_P2;Temp;Humidity;BMP_temperature;BMP_pressure;BME280_temperature;BME280_humidity;BME280_pressure;Samples;Min_cycle;Max_cycle;Signal;HPM_P1;HPM_P2
2021/11/09 07:56:36;;;;;;;12.63;4.10;;;8.10;99.90;;;;;;4932730;29;20231;-72
2021/11/09 07:59:22;;;;;;;7.53;3.77;;;8.50;99.90;;;;;;4937159;29;20219;-74
2021/11/09 08:01:59;;;;;;;8.20;3.17;;;8.80;99.90;;;;;;4930949;29;20237;-72
2021/11/09 08:04:30;;;;;;;8.43;2.73;;;9.00;99.90;;;;;;4918740;29;20300;-75
2021/11/09 08:07:00;;;;;;;5.93;2.23;;;9.30;99.90;;;;;;4917279;29;20214;-76
2021/11/09 08:09:28;;;;;;;6.90;2.57;;;9.60;99.90;;;;;;4917893;29;20301;-76
2021/11/09 08:11:58;;;;;;;6.27;1.83;;;9.70;99.90;;;;;;4919111;29;20241;-76
2021/11/09 08:14:25;;;;;;;6.83;1.80;;;10.00;99.90;;;;;;4919122;29;20235;-73
2021/11/09 08:16:52;;;;;;;11.23;1.70;;;10.30;99.90;;;;;;4918945;29;20209;-76
2021/11/09 08:19:19;;;;;;;4.53;1.63;;;10.50;99.90;;;;;;4918715;29;20209;-71
2021/11/09 08:21:48;;;;;;;10.40;2.53;;;10.70;99.90;;;;;;4918954;29;20317;-73
2021/11/09 08:24:17;;;;;;;8.23;2.10;;;10.80;99.90;;;;;;4918751;29;20209;-72
2021/11/09 08:26:43;;;;;;;5.40;2.27;;;10.80;99.90;;;;;;4918632;29;20213;-73
2021/11/09 08:29:12;;;;;;;3.80;1.70;;;10.90;99.90;;;;;;4918871;29;20209;-75
2021/11/09 08:31:44;;;;;;;5.97;1.73;;;10.80;99.90;;;;;;4918429;29;20641;-76
2021/11/09 08:34:11;;;;;;;7.07;1.67;;;10.90;99.90;;;;;;4918937;29;20213;-76
2021/11/09 08:36:39;;;;;;;6.00;1.60;;;10.70;99.90;;;;;;4918852;29;20245;-72
2021/11/09 08:39:09;;;;;;;10.37;1.70;;;10.70;99.90;;;;;;4918723;29;20214;-73
2021/11/09 08:41:42;;;;;;;5.73;1.80;;;10.40;99.90;;;;;;4918544;29;20265;-73
2021/11/09 08:44:11;;;;;;;11.57;1.93;;;9.90;99.90;;;;;;4918579;29;20209;-74
2021/11/09 08:46:42;;;;;;;6.47;1.80;;;9.60;99.90;;;;;;4918399;29;20212;-74
2021/11/09 08:49:12;;;;;;;6.33;1.60;;;9.50;99.90;;;;;;4918428;29;20578;-73
2021/11/09 08:51:40;;;;;;;7.17;2.00;;;9.50;99.90;;;;;;4918310;29;20606;-74
2021/11/09 08:54:14;;;;;;;8.53;1.80;;;9.60;99.90;;;;;;4918410;29;20300;-75
2021/11/09 08:56:56;;;;;;;8.97;2.00;;;9.70;99.90;;;;;;4917867;29;20303;-72
2021/11/09 09:04:55;;;;;;;5.27;1.60;;;9.50;99.90;;;;;;4918122;29;20216;-72
2021/11/09 09:07:22;;;;;;;8.30;2.20;;;9.40;99.90;;;;;;4918031;29;20225;-75
2021/11/09 09:09:50;;;;;;;5.40;1.90;;;9.30;99.90;;;;;;4918367;29;20213;-75
2021/11/09 09:12:16;;;;;;;11.87;2.43;;;9.20;99.90;;;;;;4917692;29;20242;-75
2021/11/09 09:14:43;;;;;;;10.37;2.27;;;9.30;99.90;;;;;;4917932;29;20217;-76
2021/11/09 09:17:11;;;;;;;10.93;1.80;;;9.40;99.90;;;;;;4917898;29;20206;-75
2021/11/09 09:19:41;;;;;;;5.20;2.30;;;9.30;99.90;;;;;;4917565;29;20594;-72
2021/11/09 09:22:11;;;;;;;8.43;2.20;;;9.20;99.90;;;;;;4918097;29;20244;-75
2021/11/09 09:27:29;;;;;;;11.70;3.37;;;9.20;99.90;;;;;;4917700;29;20691;-75
2021/11/09 09:30:14;;;;;;;8.97;2.60;;;9.40;99.90;;;;;;4917628;29;20245;-75
2021/11/09 09:52:29;;;;;;;3.87;1.63;;;9.80;99.90;;;;;;4917243;29;20252;-75
2021/11/09 09:55:20;;;;;;;9.17;2.20;;;9.90;99.90;;;;;;4917083;29;20226;-75
2021/11/09 09:57:48;;;;;;;6.40;2.13;;;10.00;99.90;;;;;;4917433;29;20213;-75
2021/11/09 10:00:16;;;;;;;12.27;1.90;;;10.10;99.90;;;;;;4917571;29;20300;-75
2021/11/09 10:02:53;;;;;;;9.07;2.00;;;10.10;99.90;;;;;;4917150;29;20236;-75
2021/11/09 10:05:23;;;;;;;4.97;1.70;;;10.10;99.90;;;;;;4917250;29;20220;-75
2021/11/09 10:07:52;;;;;;;5.90;2.27;;;10.20;99.90;;;;;;4917087;29;20210;-75
2021/11/09 10:10:21;;;;;;;8.83;1.80;;;10.20;99.90;;;;;;4917241;29;20215;-75
2021/11/09 10:12:56;;;;;;;8.17;2.10;;;10.30;99.90;;;;;;4917006;29;20243;-74
2021/11/09 10:15:27;;;;;;;6.47;2.20;;;10.30;99.90;;;;;;4917056;29;20213;-75
2021/11/09 10:17:56;;;;;;;5.97;1.77;;;10.30;99.90;;;;;;4916914;29;20312;-75
2021/11/09 10:20:26;;;;;;;5.93;2.03;;;10.30;99.90;;;;;;4916934;29;20223;-74
2021/11/09 10:22:55;;;;;;;9.60;1.60;;;10.30;99.90;;;;;;4916481;29;20233;-74
2021/11/09 10:25:23;;;;;;;9.97;2.03;;;10.40;99.90;;;;;;4916744;29;20217;-76
2021/11/09 10:27:54;;;;;;;7.50;1.33;;;10.60;99.90;;;;;;4916816;29;20216;-75
2021/11/09 10:30:24;;;;;;;7.50;1.50;;;10.70;99.90;;;;;;4916163;29;20284;-74
2021/11/09 10:32:52;;;;;;;5.07;1.67;;;10.70;99.90;;;;;;4916572;29;20572;-75
2021/11/09 10:35:20;;;;;;;10.23;2.30;;;10.70;99.90;;;;;;4916969;29;20210;-75
2021/11/09 10:37:51;;;;;;;8.73;2.13;;;10.60;99.90;;;;;;4916756;29;20210;-75
2021/11/09 10:40:21;;;;;;;6.03;1.63;;;10.70;99.90;;;;;;4916247;29;20571;-75
2021/11/09 10:42:51;;;;;;;9.50;2.43;;;10.90;99.90;;;;;;4916430;29;20233;-74
2021/11/09 10:45:20;;;;;;;6.07;1.43;;;11.10;99.90;;;;;;4916505;29;20693;-75
2021/11/09 10:47:49;;;;;;;8.23;1.63;;;11.10;99.90;;;;;;4916320;29;20209;-73
2021/11/09 10:50:21;;;;;;;5.93;1.30;;;11.10;99.90;;;;;;4916436;29;20527;-75
2021/11/09 10:53:00;;;;;;;5.93;1.20;;;11.10;99.90;;;;;;4916086;29;20770;-75
2021/11/09 10:55:32;;;;;;;3.10;1.10;;;11.10;99.90;;;;;;4915963;29;20296;-75
2021/11/09 10:58:14;;;;;;;9.57;1.20;;;11.10;99.90;;;;;;4916199;29;20210;-75
2021/11/09 11:03:54;;;;;;;8.27;1.33;;;11.10;99.90;;;;;;4903925;29;20206;-74
2021/11/09 11:06:23;;;;;;;3.73;1.30;;;11.10;99.90;;;;;;4916137;29;20569;-75
2021/11/09 11:08:53;;;;;;;5.33;1.50;;;11.10;99.90;;;;;;4916283;29;20206;-75
2021/11/09 11:11:22;;;;;;;4.73;0.97;;;11.20;99.90;;;;;;4916250;29;20246;-75
2021/11/09 11:13:52;;;;;;;7.60;1.60;;;11.30;99.90;;;;;;4916342;29;20586;-75
2021/11/09 11:16:20;;;;;;;9.13;1.30;;;11.30;99.90;;;;;;4916212;29;20324;-75
2021/11/09 11:18:51;;;;;;;4.73;1.10;;;11.40;99.90;;;;;;4915251;29;20257;-75
2021/11/09 11:21:21;;;;;;;4.37;1.33;;;11.60;99.90;;;;;;4916258;29;20234;-75
2021/11/09 11:23:48;;;;;;;5.63;1.20;;;11.60;99.90;;;;;;4916512;29;20582;-75
2021/11/09 11:26:18;;;;;;;6.50;1.67;;;11.60;99.90;;;;;;4916173;29;20288;-76
2021/11/09 11:28:48;;;;;;;4.30;1.00;;;11.70;99.90;;;;;;4916249;29;20210;-75
2021/11/09 11:31:16;;;;;;;5.73;1.57;;;11.80;99.90;;;;;;4916423;29;20244;-75
2021/11/09 11:33:43;;;;;;;9.33;1.07;;;11.90;99.90;;;;;;4916575;29;20206;-75
2021/11/09 11:36:10;;;;;;;6.53;1.27;;;12.00;99.90;;;;;;4916295;29;20212;-75
2021/11/09 11:38:42;;;;;;;4.30;1.60;;;12.10;99.90;;;;;;4916509;29;20213;-74
2021/11/09 11:41:09;;;;;;;5.40;1.10;;;12.10;99.90;;;;;;4915706;29;20557;-76
2021/11/09 11:43:57;;;;;;;6.00;1.40;;;12.10;99.90;;;;;;4918875;29;20245;-75
2021/11/09 11:46:45;;;;;;;3.80;1.20;;;12.00;99.90;;;;;;4919714;29;20213;-75
2021/11/09 11:49:17;;;;;;;6.50;1.60;;;12.10;99.90;;;;;;4919996;29;20213;-76
2021/11/09 11:52:13;;;;;;;6.63;1.60;;;12.10;99.90;;;;;;4919494;29;20237;-77
2021/11/09 11:54:49;;;;;;;8.40;1.20;;;12.10;99.90;;;;;;4919655;29;20700;-74
2021/11/09 11:57:43;;;;;;;6.07;1.00;;;12.20;99.90;;;;;;4919703;29;20219;-76
2021/11/09 12:00:30;;;;;;;12.27;1.10;;;12.20;99.90;;;;;;4919438;29;20300;-75
2021/11/09 12:02:58;;;;;;;5.73;1.10;;;12.30;99.90;;;;;;4919253;29;20237;-75
2021/11/09 12:05:41;;;;;;;2.80;0.87;;;12.30;99.90;;;;;;4918998;29;20215;-73
2021/11/09 12:08:10;;;;;;;6.37;1.23;;;12.40;99.90;;;;;;4918196;29;20212;-75
2021/11/09 12:10:48;;;;;;;4.10;1.30;;;12.40;99.90;;;;;;4918603;29;20209;-74
2021/11/09 12:13:18;;;;;;;2.67;0.93;;;12.50;99.90;;;;;;4918799;29;20328;-74
2021/11/09 12:15:52;;;;;;;4.00;0.90;;;12.60;99.90;;;;;;4918935;29;20205;-75
2021/11/09 12:18:41;;;;;;;6.33;1.30;;;12.50;99.90;;;;;;4918811;29;20659;-75
2021/11/09 12:21:34;;;;;;;3.27;1.00;;;12.50;99.90;;;;;;4918614;29;20217;-74
2021/11/09 12:24:19;;;;;;;4.17;0.90;;;12.60;99.90;;;;;;4918659;29;20217;-75
2021/11/09 12:26:48;;;;;;;6.73;1.23;;;12.70;99.90;;;;;;4918618;29;20606;-75
2021/11/09 12:29:41;;;;;;;3.87;1.10;;;12.80;99.90;;;;;;4918557;29;20280;-75
2021/11/09 12:32:43;;;;;;;5.43;1.67;;;12.80;99.90;;;;;;4918808;29;20289;-74
2021/11/09 12:35:25;;;;;;;5.27;1.03;;;12.80;99.90;;;;;;4918337;29;20304;-73
2021/11/09 12:38:14;;;;;;;7.63;1.20;;;12.70;99.90;;;;;;4918681;29;20236;-74
2021/11/09 12:40:47;;;;;;;2.47;0.80;;;12.80;99.90;;;;;;4918418;29;20675;-74
2021/11/09 12:43:17;;;;;;;2.97;0.90;;;12.70;99.90;;;;;;4918106;29;20255;-74
2021/11/09 12:45:48;;;;;;;4.43;1.13;;;12.70;99.90;;;;;;4917029;29;20563;-73
2021/11/09 12:48:24;;;;;;;9.20;1.50;;;12.60;99.90;;;;;;4918263;29;20296;-74
2021/11/09 12:50:54;;;;;;;2.97;1.00;;;12.70;99.90;;;;;;4918348;29;20611;-74
2021/11/09 12:53:23;;;;;;;4.10;1.37;;;12.90;99.90;;;;;;4917924;29;20241;-74
2021/11/09 12:56:06;;;;;;;4.33;1.17;;;12.90;99.90;;;;;;4915019;29;20302;-73
2021/11/09 12:58:35;;;;;;;7.80;1.67;;;12.90;99.90;;;;;;4917924;29;20288;-72
2021/11/09 13:01:13;;;;;;;4.87;0.90;;;12.90;99.90;;;;;;4918204;29;20209;-74
2021/11/09 13:03:48;;;;;;;2.93;1.00;;;12.80;99.90;;;;;;4918141;29;20217;-74
2021/11/09 13:06:35;;;;;;;9.27;1.33;;;12.80;99.90;;;;;;4917763;29;20300;-75
2021/11/09 13:09:08;;;;;;;2.80;1.10;;;12.90;99.90;;;;;;4917995;29;20300;-74
2021/11/09 13:11:39;;;;;;;2.87;1.17;;;12.90;99.90;;;;;;4917083;29;20733;-75
2021/11/09 13:14:08;;;;;;;2.43;1.10;;;13.00;99.90;;;;;;4917340;29;20215;-73
2021/11/09 13:16:40;;;;;;;5.17;1.00;;;13.00;99.90;;;;;;4917146;29;20232;-73
2021/11/09 13:19:08;;;;;;;4.03;1.13;;;12.90;99.90;;;;;;4917131;29;20217;-75
2021/11/09 13:21:37;;;;;;;6.67;1.33;;;12.90;99.90;;;;;;4917240;29;20744;-73
2021/11/09 13:24:04;;;;;;;4.37;1.00;;;12.90;99.90;;;;;;4917726;29;20221;-73
2021/11/09 13:26:32;;;;;;;3.97;0.80;;;12.90;99.90;;;;;;4917078;29;20236;-74
2021/11/09 13:29:06;;;;;;;6.23;1.50;;;13.00;99.90;;;;;;4917275;29;20574;-75
2021/11/09 13:31:34;;;;;;;4.23;1.00;;;13.00;99.90;;;;;;4917367;29;20642;-75
2021/11/09 13:34:03;;;;;;;5.73;1.23;;;13.00;99.90;;;;;;4917418;29;20209;-74
2021/11/09 13:36:31;;;;;;;3.33;1.23;;;13.10;99.90;;;;;;4917245;29;20592;-73
2021/11/09 13:38:58;;;;;;;5.83;1.10;;;13.20;99.90;;;;;;4917090;29;20209;-73
2021/11/09 13:41:33;;;;;;;5.97;1.13;;;13.30;99.90;;;;;;4916720;29;20239;-74
2021/11/09 13:44:03;;;;;;;5.90;1.30;;;13.20;99.90;;;;;;4916934;29;20296;-74
2021/11/09 13:46:31;;;;;;;3.63;1.23;;;13.20;99.90;;;;;;4916650;29;20225;-74
2021/11/09 13:49:00;;;;;;;4.73;1.20;;;13.10;99.90;;;;;;4917114;29;20220;-74
2021/11/09 13:51:29;;;;;;;3.30;1.10;;;13.10;99.90;;;;;;4916635;29;20232;-75
2021/11/09 13:54:01;;;;;;;4.03;1.20;;;13.10;99.90;;;;;;4915435;29;20214;-74
2021/11/09 13:56:29;;;;;;;2.10;1.10;;;13.00;99.90;;;;;;4916063;29;20649;-74
2021/11/09 13:58:58;;;;;;;4.40;0.93;;;13.00;99.90;;;;;;4961089;23;20766;-70
2021/11/09 14:01:52;;;;;;;4.60;1.07;;;13.00;99.90;;;;;;4954846;28;20232;-71
2021/11/09 14:13:25;;;;;;;9.20;1.57;;;13.20;99.90;;;;;;4953707;28;20239;-72
2021/11/09 14:18:34;;;;;;;4.90;1.17;;;13.30;99.90;;;;;;4945560;29;20200;-72
2021/11/09 14:21:03;;;;;;;7.27;1.67;;;13.30;99.90;;;;;;4954070;28;20299;-72
2021/11/09 14:23:32;;;;;;;4.93;1.23;;;13.10;99.90;;;;;;4954249;29;20239;-72
2021/11/09 14:26:15;;;;;;;8.40;1.57;;;13.10;99.90;;;;;;4952806;29;20743;-71
2021/11/09 14:28:42;;;;;;;3.87;1.30;;;13.00;99.90;;;;;;4954682;29;20208;-72
2021/11/09 14:31:14;;;;;;;4.83;1.33;;;13.00;99.90;;;;;;4954479;28;20231;-72
2021/11/09 14:33:41;;;;;;;5.30;1.07;;;13.00;99.90;;;;;;4954668;29;20235;-72
2021/11/09 14:36:29;;;;;;;6.23;1.20;;;13.00;99.90;;;;;;4954491;29;20303;-72
2021/11/09 14:39:11;;;;;;;4.63;1.00;;;12.80;99.90;;;;;;4954295;29;20212;-71
2021/11/09 14:42:01;;;;;;;2.87;1.47;;;12.80;99.90;;;;;;4953536;28;20318;-73
2021/11/09 14:44:29;;;;;;;3.90;1.00;;;12.70;99.90;;;;;;4954852;29;20736;-73
2021/11/09 14:46:57;;;;;;;3.10;1.30;;;12.70;99.90;;;;;;4954681;29;20685;-71
2021/11/09 14:49:38;;;;;;;6.20;1.20;;;12.80;99.90;;;;;;4954660;29;20688;-71
2021/11/09 14:52:08;;;;;;;4.53;1.30;;;12.80;99.90;;;;;;4951867;28;21009;-71
2021/11/09 14:54:36;;;;;;;5.30;1.17;;;12.80;99.90;;;;;;4953670;29;20280;-72
2021/11/09 14:57:08;;;;;;;4.27;1.00;;;12.80;99.90;;;;;;4952749;29;20218;-71
2021/11/09 14:59:35;;;;;;;6.30;0.83;;;12.80;99.90;;;;;;4952990;29;20222;-72
2021/11/09 15:02:07;;;;;;;9.90;3.80;;;12.70;99.90;;;;;;4952723;29;20239;-71
2021/11/09 15:04:40;;;;;;;9.83;3.00;;;12.70;99.90;;;;;;4948431;29;20294;-71
2021/11/09 15:07:15;;;;;;;6.40;2.03;;;12.70;99.90;;;;;;4953256;29;20268;-71
2021/11/09 15:10:00;;;;;;;6.07;1.27;;;12.60;99.90;;;;;;4952885;29;20200;-69
2021/11/09 15:12:43;;;;;;;3.50;1.83;;;12.50;99.90;;;;;;4952913;28;20235;-69
2021/11/09 15:26:20;;;;;;;6.47;1.17;;;12.10;99.90;;;;;;4957803;29;20206;-72
2021/11/09 15:28:52;;;;;;;3.83;1.20;;;12.10;99.90;;;;;;4958010;29;20208;-73
2021/11/09 15:31:22;;;;;;;4.40;1.20;;;11.90;99.90;;;;;;4957643;28;20236;-72
2021/11/09 15:33:51;;;;;;;2.00;1.10;;;11.90;99.90;;;;;;4957031;29;20330;-69
2021/11/09 15:39:15;;;;;;;8.17;2.17;;;11.70;99.90;;;;;;4917412;29;20697;-71
2021/11/09 15:41:43;;;;;;;3.13;1.23;;;11.50;99.90;;;;;;4947913;28;20239;-77
2021/11/09 15:44:13;;;;;;;9.53;3.03;;;11.50;99.90;;;;;;4957390;29;20576;-73
2021/11/09 15:46:39;;;;;;;5.33;1.97;;;11.40;99.90;;;;;;4957248;29;20679;-71
2021/11/09 15:49:08;;;;;;;2.87;1.00;;;11.30;99.90;;;;;;4957837;29;20214;-68
2021/11/09 15:51:35;;;;;;;5.30;1.20;;;11.20;99.90;;;;;;4957391;28;20228;-74
2021/11/09 15:54:02;;;;;;;9.30;1.43;;;11.10;99.90;;;;;;4957383;29;20246;-76
2021/11/09 15:56:29;;;;;;;7.03;1.30;;;11.00;99.90;;;;;;4957384;29;20215;-72
2021/11/09 15:58:56;;;;;;;7.20;1.23;;;10.90;99.90;;;;;;4957100;29;20211;-72
2021/11/09 16:01:26;;;;;;;2.67;1.60;;;10.80;99.90;;;;;;4956617;28;20246;-70
2021/11/09 16:03:53;;;;;;;4.83;1.10;;;10.60;99.90;;;;;;4956660;29;20617;-79
2021/11/09 16:06:20;;;;;;;8.80;1.40;;;10.50;99.90;;;;;;4957476;29;20298;-70
2021/11/09 16:08:49;;;;;;;5.77;1.30;;;10.40;99.90;;;;;;4957365;29;20238;-74
2021/11/09 16:11:16;;;;;;;2.27;1.03;;;10.30;99.90;;;;;;4956800;28;20266;-71
2021/11/09 16:13:43;;;;;;;6.43;1.33;;;10.20;99.90;;;;;;4956763;29;20731;-72
2021/11/09 16:16:10;;;;;;;4.60;1.40;;;10.10;99.90;;;;;;4957407;29;20204;-73
2021/11/09 16:18:38;;;;;;;6.67;1.77;;;10.00;99.90;;;;;;4957235;29;20216;-72
2021/11/09 16:21:06;;;;;;;4.27;1.17;;;9.90;99.90;;;;;;4957480;28;20235;-71
2021/11/09 16:23:34;;;;;;;8.37;1.40;;;9.80;99.90;;;;;;4956915;29;20211;-70
2021/11/09 16:26:01;;;;;;;6.20;1.47;;;9.80;99.90;;;;;;4956790;29;20568;-73
2021/11/09 16:28:27;;;;;;;3.20;1.60;;;9.70;99.90;;;;;;4955696;28;20220;-73
2021/11/09 16:30:54;;;;;;;9.43;1.60;;;9.70;99.90;;;;;;4956861;29;20684;-73
2021/11/09 16:33:25;;;;;;;6.97;1.47;;;9.60;99.90;;;;;;4956800;28;20247;-73
2021/11/09 16:35:59;;;;;;;4.63;1.50;;;9.60;99.90;;;;;;4957037;29;20238;-73
2021/11/09 16:38:27;;;;;;;8.60;1.57;;;9.50;99.90;;;;;;4956590;29;20208;-72
2021/11/09 16:40:55;;;;;;;7.03;2.03;;;9.40;99.90;;;;;;4956670;29;20243;-72
2021/11/09 16:43:24;;;;;;;2.67;1.60;;;9.30;99.90;;;;;;4956801;29;20578;-71
2021/11/09 16:46:04;;;;;;;10.63;2.00;;;9.30;99.90;;;;;;4956496;29;20208;-69
2021/11/09 16:48:34;;;;;;;8.40;2.13;;;9.30;99.90;;;;;;4956687;29;20212;-72
2021/11/09 16:51:14;;;;;;;4.83;1.60;;;9.30;99.90;;;;;;4956513;28;20212;-73
2021/11/09 16:53:42;;;;;;;5.03;1.50;;;9.10;99.90;;;;;;4956259;29;20270;-73
2021/11/09 18:15:52;;;;;;;7.00;3.47;;;7.60;99.90;;;;;;5137086;27;20201;-73
2021/11/09 18:21:06;;;;;;;9.17;3.37;;;7.60;99.90;;;;;;5136879;27;20232;-73
2021/11/09 18:23:35;;;;;;;10.50;3.73;;;7.40;99.90;;;;;;5136995;27;20253;-73
2021/11/09 18:26:04;;;;;;;10.50;3.70;;;7.30;99.90;;;;;;5120184;27;20225;-72
2021/11/09 18:28:31;;;;;;;9.73;4.83;;;7.30;99.90;;;;;;5116930;28;20205;-72
2021/11/09 18:30:59;;;;;;;8.77;3.33;;;7.20;99.90;;;;;;5116500;28;20246;-72
2021/11/09 18:33:28;;;;;;;9.20;4.20;;;7.20;99.90;;;;;;5120877;27;20236;-72
2021/11/09 18:35:56;;;;;;;8.53;3.60;;;7.10;99.90;;;;;;5136948;27;20590;-72
2021/11/09 18:38:24;;;;;;;13.47;3.27;;;7.10;99.90;;;;;;5136570;27;20542;-72
2021/11/09 18:40:51;;;;;;;5.47;3.17;;;7.20;99.90;;;;;;5136195;27;20228;-72
2021/11/09 18:43:21;;;;;;;6.00;3.10;;;7.20;99.90;;;;;;5136332;27;20249;-72
2021/11/09 18:45:49;;;;;;;9.30;3.50;;;7.10;99.90;;;;;;5136387;27;20561;-72
2021/11/09 18:48:16;;;;;;;9.87;3.80;;;7.10;99.90;;;;;;5136508;27;20262;-72
2021/11/09 18:50:45;;;;;;;11.87;3.90;;;7.10;99.90;;;;;;5136132;27;20653;-72
2021/11/09 18:53:12;;;;;;;12.63;4.37;;;7.10;99.90;;;;;;5135793;27;20713;-72
2021/11/09 18:55:42;;;;;;;11.40;3.67;;;7.20;99.90;;;;;;5135945;27;20565;-72
2021/11/09 18:58:08;;;;;;;10.63;3.73;;;7.20;99.90;;;;;;5135874;27;20209;-72
2021/11/09 19:00:36;;;;;;;10.27;4.73;;;7.10;99.90;;;;;;5135821;27;20712;-71
2021/11/09 19:03:04;;;;;;;8.80;3.93;;;7.00;99.90;;;;;;5135688;27;20655;-72
2021/11/09 19:05:31;;;;;;;10.37;4.00;;;6.90;99.90;;;;;;5136057;27;20204;-72
2021/11/09 19:07:59;;;;;;;11.30;4.63;;;6.80;99.90;;;;;;5135851;27;20693;-72
2021/11/09 19:10:28;;;;;;;9.67;3.80;;;6.80;99.90;;;;;;5135475;27;20213;-72
2021/11/09 19:12:56;;;;;;;8.47;3.60;;;6.70;99.90;;;;;;5135416;27;20307;-72
2021/11/09 19:15:23;;;;;;;5.93;3.43;;;6.70;99.90;;;;;;5135592;27;20205;-71
2021/11/09 19:17:50;;;;;;;8.73;3.60;;;6.60;99.90;;;;;;5135490;27;20200;-72
2021/11/09 19:20:20;;;;;;;7.90;3.73;;;6.50;99.90;;;;;;5135497;27;20315;-71
2021/11/09 19:22:47;;;;;;;8.63;3.47;;;6.60;99.90;;;;;;5134731;27;20221;-71
2021/11/09 19:25:18;;;;;;;8.70;4.17;;;6.50;99.90;;;;;;5134713;27;20205;-72
2021/11/09 19:27:45;;;;;;;10.50;3.67;;;6.50;99.90;;;;;;5135211;27;20201;-71
2021/11/09 19:30:15;;;;;;;8.30;4.17;;;6.50;99.90;;;;;;5135462;27;20220;-71
2021/11/09 19:32:42;;;;;;;10.03;4.37;;;6.60;99.90;;;;;;5135521;27;20304;-74
2021/11/09 19:35:09;;;;;;;10.20;4.63;;;6.60;99.90;;;;;;5134867;27;20293;-72
2021/11/09 19:37:37;;;;;;;11.17;4.67;;;6.50;99.90;;;;;;5135073;27;20201;-72
2021/11/09 19:40:06;;;;;;;10.63;4.47;;;6.50;99.90;;;;;;5134789;27;20546;-72
2021/11/09 19:42:42;;;;;;;11.07;4.67;;;6.50;99.90;;;;;;5134669;27;20249;-71
2021/11/09 19:45:12;;;;;;;9.60;5.37;;;6.50;99.90;;;;;;5134871;27;20223;-68
2021/11/09 19:47:40;;;;;;;11.47;4.80;;;6.40;99.90;;;;;;5135024;27;20204;-72
2021/11/09 19:50:09;;;;;;;11.60;5.73;;;6.40;99.90;;;;;;5134498;27;20201;-70
2021/11/09 19:52:36;;;;;;;12.73;5.37;;;6.40;99.90;;;;;;5134594;27;20231;-72
2021/11/09 19:55:05;;;;;;;10.83;4.93;;;6.40;99.90;;;;;;5134751;27;20217;-73
2021/11/09 19:57:34;;;;;;;15.67;5.23;;;6.40;99.90;;;;;;5147951;22;20216;-74
2021/11/09 20:00:02;;;;;;;11.97;4.33;;;6.40;99.90;;;;;;5114100;28;20210;-76
2021/11/09 20:02:31;;;;;;;12.10;4.90;;;6.30;99.90;;;;;;5113679;28;20740;-78
2021/11/09 20:04:58;;;;;;;11.07;4.17;;;6.20;99.90;;;;;;5113641;28;20198;-79
2021/11/09 20:07:26;;;;;;;11.20;4.10;;;6.20;99.90;;;;;;5113898;28;20205;-75
2021/11/09 20:09:54;;;;;;;10.87;4.20;;;6.20;99.90;;;;;;5113982;28;20658;-75
2021/11/09 20:12:26;;;;;;;7.70;4.23;;;6.30;99.90;;;;;;5113799;28;20229;-75
2021/11/09 20:14:58;;;;;;;9.37;4.43;;;6.10;99.90;;;;;;5113496;28;20212;-75
2021/11/09 20:17:25;;;;;;;9.47;5.27;;;6.10;99.90;;;;;;5113969;28;20259;-75
2021/11/09 20:19:54;;;;;;;9.47;4.00;;;6.00;99.90;;;;;;5113400;28;20202;-75
2021/11/09 20:22:21;;;;;;;9.73;4.00;;;6.10;99.90;;;;;;5113340;28;20237;-76
2021/11/09 20:24:51;;;;;;;9.47;4.40;;;6.10;99.90;;;;;;5113607;28;20653;-75
2021/11/09 20:27:18;;;;;;;12.37;5.37;;;6.20;99.90;;;;;;5113519;28;20703;-76
2021/11/09 20:29:45;;;;;;;8.20;4.47;;;6.20;99.90;;;;;;5113796;28;20235;-75
2021/11/09 20:32:14;;;;;;;10.73;5.40;;;6.10;99.90;;;;;;5113614;28;20231;-75
2021/11/09 20:34:41;;;;;;;12.07;5.70;;;6.00;99.90;;;;;;5112790;28;20214;-76
2021/11/09 20:37:08;;;;;;;15.80;5.43;;;5.90;99.90;;;;;;5113727;28;20345;-75
2021/11/09 20:39:35;;;;;;;12.67;4.77;;;6.00;99.90;;;;;;5113425;28;20212;-76
2021/11/09 20:42:02;;;;;;;12.60;5.37;;;6.00;99.90;;;;;;5113123;28;20236;-75
2021/11/09 20:44:29;;;;;;;11.57;4.87;;;6.00;99.90;;;;;;5113359;28;20208;-75
2021/11/09 20:46:56;;;;;;;7.97;4.33;;;5.90;99.90;;;;;;5113287;28;20204;-75
2021/11/09 20:49:24;;;;;;;10.07;4.30;;;6.00;99.90;;;;;;5113396;28;20208;-75
2021/11/09 20:51:57;;;;;;;10.60;4.43;;;5.90;99.90;;;;;;5113415;28;20228;-76
2021/11/09 20:54:24;;;;;;;12.60;4.67;;;5.90;99.90;;;;;;5113181;28;20259;-77
2021/11/09 20:56:51;;;;;;;11.10;4.50;;;5.80;99.90;;;;;;5113157;28;20211;-76
2021/11/09 20:59:18;;;;;;;9.57;4.33;;;5.80;99.90;;;;;;5112940;28;20321;-75
2021/11/09 21:01:45;;;;;;;13.10;4.63;;;5.90;99.90;;;;;;5112755;28;20608;-75
2021/11/09 21:04:12;;;;;;;11.93;4.43;;;5.90;99.90;;;;;;5112872;28;20518;-76
2021/11/09 21:06:41;;;;;;;10.33;4.57;;;5.80;99.90;;;;;;5113184;28;20565;-75
2021/11/09 21:09:08;;;;;;;7.60;4.10;;;5.90;99.90;;;;;;5113102;28;20202;-75
2021/11/09 21:11:35;;;;;;;11.43;4.77;;;5.80;99.90;;;;;;5112806;28;20221;-75
2021/11/09 21:14:10;;;;;;;10.97;4.50;;;5.60;99.90;;;;;;5112695;28;20560;-75
2021/11/09 21:19:23;;;;;;;6.83;3.97;;;5.70;99.90;;;;;;5111214;28;20557;-75
2021/11/09 21:21:51;;;;;;;12.40;4.67;;;5.80;99.90;;;;;;5112587;28;20320;-75
2021/11/09 21:24:18;;;;;;;15.83;4.10;;;5.90;99.90;;;;;;5113078;28;20202;-75
2021/11/09 21:26:45;;;;;;;10.93;4.27;;;5.90;99.90;;;;;;5112743;28;20198;-75
2021/11/09 21:29:29;;;;;;;7.73;4.17;;;5.90;99.90;;;;;;5112730;28;20208;-78
2021/11/09 21:32:08;;;;;;;8.83;3.83;;;5.70;99.90;;;;;;5112983;28;20221;-74
2021/11/09 21:37:21;;;;;;;6.40;3.90;;;5.40;99.90;;;;;;5112850;28;20204;-77
2021/11/09 21:39:48;;;;;;;8.50;3.60;;;5.40;99.90;;;;;;5112930;28;20208;-77
2021/11/09 21:42:15;;;;;;;13.13;3.90;;;5.40;99.90;;;;;;5112283;28;20272;-77
2021/11/09 21:44:42;;;;;;;6.87;3.60;;;5.50;99.90;;;;;;5112466;28;20205;-77
2021/11/09 21:47:09;;;;;;;7.13;3.47;;;5.60;99.90;;;;;;5113812;28;20296;-77
2021/11/09 21:49:36;;;;;;;9.97;3.60;;;5.40;99.90;;;;;;5116314;28;20662;-75
2021/11/09 21:52:04;;;;;;;8.23;3.50;;;5.40;99.90;;;;;;5116510;28;20236;-75
2021/11/09 21:54:33;;;;;;;5.80;3.07;;;5.50;99.90;;;;;;5116350;28;20198;-75
2021/11/09 21:57:00;;;;;;;4.70;3.00;;;5.60;99.90;;;;;;5116311;28;20223;-75
2021/11/09 21:59:27;;;;;;;8.23;3.27;;;5.60;99.90;;;;;;5116288;28;20708;-76
2021/11/09 22:01:54;;;;;;;8.53;3.07;;;5.60;99.90;;;;;;5116046;28;20308;-74
2021/11/09 22:04:21;;;;;;;8.20;3.13;;;5.60;99.90;;;;;;5116406;28;20305;-75
2021/11/09 22:06:47;;;;;;;9.93;3.37;;;5.50;99.90;;;;;;5116529;28;20213;-75
2021/11/09 22:09:14;;;;;;;10.53;4.20;;;5.60;99.90;;;;;;5116179;28;20661;-75
2021/11/09 22:11:43;;;;;;;6.87;3.10;;;5.50;99.90;;;;;;5116075;28;20768;-76
2021/11/09 22:14:10;;;;;;;10.83;3.20;;;5.30;99.90;;;;;;5116177;28;20671;-75
2021/11/09 22:16:37;;;;;;;8.23;3.17;;;5.30;99.90;;;;;;5116193;28;20227;-76
2021/11/09 22:19:04;;;;;;;7.90;2.70;;;5.30;99.90;;;;;;5116247;28;20258;-76
2021/11/09 22:21:31;;;;;;;9.90;2.83;;;5.50;99.90;;;;;;5116084;28;20312;-75
2021/11/09 22:24:00;;;;;;;6.13;3.00;;;5.40;99.90;;;;;;5116144;28;20201;-75
2021/11/09 22:26:27;;;;;;;6.43;3.00;;;5.40;99.90;;;;;;5115999;28;20202;-75
2021/11/09 22:28:55;;;;;;;12.33;2.93;;;5.40;99.90;;;;;;5116046;28;20501;-75
2021/11/09 22:31:22;;;;;;;5.80;2.80;;;5.30;99.90;;;;;;5115473;28;20732;-75
2021/11/09 22:33:49;;;;;;;10.73;2.47;;;5.30;99.90;;;;;;5115837;28;20553;-75
2021/11/09 22:36:16;;;;;;;8.20;2.97;;;5.40;99.90;;;;;;5115999;28;20301;-74
2021/11/09 22:38:43;;;;;;;7.93;2.90;;;5.30;99.90;;;;;;5115687;28;20206;-75
2021/11/09 22:41:10;;;;;;;9.40;3.13;;;5.50;99.90;;;;;;5115336;28;20225;-75
2021/11/09 22:43:36;;;;;;;6.77;2.40;;;5.40;99.90;;;;;;5115495;28;20206;-75
2021/11/09 22:46:05;;;;;;;6.27;2.80;;;5.20;99.90;;;;;;5115559;28;20206;-75
2021/11/09 22:48:32;;;;;;;6.13;2.47;;;5.00;99.90;;;;;;5115889;28;20208;-75
2021/11/09 22:50:58;;;;;;;7.63;3.07;;;4.90;99.90;;;;;;5115678;28;20307;-75
2021/11/09 22:53:26;;;;;;;6.17;2.47;;;4.90;99.90;;;;;;5115537;28;20202;-75
2021/11/09 22:55:53;;;;;;;7.23;2.70;;;4.90;99.90;;;;;;5115154;28;20198;-75
2021/11/09 22:58:20;;;;;;;5.20;2.33;;;4.90;99.90;;;;;;5115020;28;20293;-75
2021/11/09 23:00:47;;;;;;;4.33;2.17;;;4.90;99.90;;;;;;5115394;28;20296;-75
2021/11/09 23:03:15;;;;;;;8.43;2.53;;;4.90;99.90;;;;;;5114912;28;20237;-75
2021/11/09 23:05:43;;;;;;;11.63;2.80;;;5.00;99.90;;;;;;5114973;28;20292;-75
2021/11/09 23:08:10;;;;;;;6.80;2.60;;;5.00;99.90;;;;;;5115406;28;20198;-77
2021/11/09 23:10:36;;;;;;;4.97;2.27;;;5.10;99.90;;;;;;5109772;28;20201;-76
2021/11/09 23:13:03;;;;;;;10.67;2.67;;;5.00;99.90;;;;;;5114617;28;20596;-75
2021/11/09 23:15:31;;;;;;;7.17;3.03;;;5.00;99.90;;;;;;5115265;28;20202;-75
2021/11/09 23:17:58;;;;;;;10.80;2.50;;;4.90;99.90;;;;;;5114827;28;20202;-74
